sensor_id;sensor_type;location;lat;lon;timestamp;temperature;humidity
51739;DHT22;37815;52.692;6.226;2022-11-15T00:04:53;10.60;99.10
51739;DHT22;37815;52.692;6.226;2022-11-15T00:09:54;10.50;99.10
51739;DHT22;37815;52.692;6.226;2022-11-15T00:14:55;10.60;99.10
51739;DHT22;37815;52.692;6.226;2022-11-15T00:19:55;10.60;99.00
51739;DHT22;37815;52.692;6.226;2022-11-15T00:24:56;10.50;99.00
51739;DHT22;37815;52.692;6.226;2022-11-15T00:29:57;10.50;99.00
51739;DHT22;37815;52.692;6.226;2022-11-15T00:34:57;10.50;99.00
51739;DHT22;37815;52.692;6.226;2022-11-15T00:39:58;10.50;99.00
51739;DHT22;37815;52.692;6.226;2022-11-15T00:44:59;10.50;99.00
51739;DHT22;37815;52.692;6.226;2022-11-15T00:49:59;10.50;99.00
51739;DHT22;37815;52.692;6.226;2022-11-15T00:55:00;10.50;99.00
51739;DHT22;37815;52.692;6.226;2022-11-15T01:00:01;10.50;99.00
51739;DHT22;37815;52.692;6.226;2022-11-15T01:05:02;10.50;99.00
51739;DHT22;37815;52.692;6.226;2022-11-15T01:10:03;10.50;99.00
51739;DHT22;37815;52.692;6.226;2022-11-15T01:15:05;10.50;99.00
51739;DHT22;37815;52.692;6.226;2022-11-15T01:20:06;10.50;99.00
51739;DHT22;37815;52.692;6.226;2022-11-15T01:25:07;10.50;99.00
51739;DHT22;37815;52.692;6.226;2022-11-15T01:30:08;10.50;98.90
51739;DHT22;37815;52.692;6.226;2022-11-15T01:35:09;10.50;99.00
51739;DHT22;37815;52.692;6.226;2022-11-15T01:40:10;10.10;98.90
51739;DHT22;37815;52.692;6.226;2022-11-15T01:45:14;10.50;98.90
51739;DHT22;37815;52.692;6.226;2022-11-15T01:50:19;10.50;98.90
51739;DHT22;37815;52.692;6.226;2022-11-15T01:55:24;10.50;99.00
51739;DHT22;37815;52.692;6.226;2022-11-15T02:00:25;10.50;99.00
51739;DHT22;37815;52.692;6.226;2022-11-15T02:05:26;10.50;99.00
51739;DHT22;37815;52.692;6.226;2022-11-15T02:10:27;10.50;99.00
51739;DHT22;37815;52.692;6.226;2022-11-15T02:15:34;10.50;99.00
51739;DHT22;37815;52.692;6.226;2022-11-15T02:21:22;10.50;99.00
51739;DHT22;37815;52.692;6.226;2022-11-15T02:32:18;10.50;99.00
51739;DHT22;37815;52.692;6.226;2022-11-15T02:42:43;10.50;99.10
51739;DHT22;37815;52.692;6.226;2022-11-15T02:48:04;10.50;99.10
51739;DHT22;37815;52.692;6.226;2022-11-15T02:53:08;10.50;99.10
51739;DHT22;37815;52.692;6.226;2022-11-15T03:03:46;10.50;99.10
51739;DHT22;37815;52.692;6.226;2022-11-15T03:19:25;10.50;99.20
51739;DHT22;37815;52.692;6.226;2022-11-15T03:24:28;10.50;99.30
51739;DHT22;37815;52.692;6.226;2022-11-15T03:29:37;10.50;99.30
51739;DHT22;37815;52.692;6.226;2022-11-15T03:34:51;10.50;99.30
51739;DHT22;37815;52.692;6.226;2022-11-15T03:39:52;10.50;99.30
51739;DHT22;37815;52.692;6.226;2022-11-15T03:50:17;10.50;99.50
51739;DHT22;37815;52.692;6.226;2022-11-15T03:55:20;10.60;99.50
51739;DHT22;37815;52.692;6.226;2022-11-15T04:00:21;10.50;99.60
51739;DHT22;37815;52.692;6.226;2022-11-15T04:05:22;10.60;99.50
51739;DHT22;37815;52.692;6.226;2022-11-15T04:10:22;10.60;99.60
51739;DHT22;37815;52.692;6.226;2022-11-15T04:15:24;10.60;99.60
51739;DHT22;37815;52.692;6.226;2022-11-15T04:20:27;10.60;99.60
51739;DHT22;37815;52.692;6.226;2022-11-15T04:25:49;10.60;99.90
51739;DHT22;37815;52.692;6.226;2022-11-15T04:30:51;10.60;99.70
51739;DHT22;37815;52.692;6.226;2022-11-15T04:35:52;10.60;99.70
51739;DHT22;37815;52.692;6.226;2022-11-15T04:41:11;10.60;99.70
51739;DHT22;37815;52.692;6.226;2022-11-15T04:46:12;10.60;99.80
51739;DHT22;37815;52.692;6.226;2022-11-15T04:51:13;10.60;99.80
51739;DHT22;37815;52.692;6.226;2022-11-15T04:56:14;10.60;99.80
51739;DHT22;37815;52.692;6.226;2022-11-15T05:01:15;10.70;99.90
51739;DHT22;37815;52.692;6.226;2022-11-15T05:06:16;10.70;99.90
51739;DHT22;37815;52.692;6.226;2022-11-15T05:11:16;10.70;99.90
51739;DHT22;37815;52.692;6.226;2022-11-15T05:16:17;10.70;99.90
51739;DHT22;37815;52.692;6.226;2022-11-15T05:21:18;10.70;99.90
51739;DHT22;37815;52.692;6.226;2022-11-15T05:26:18;10.70;99.90
51739;DHT22;37815;52.692;6.226;2022-11-15T05:31:19;10.70;99.90
51739;DHT22;37815;52.692;6.226;2022-11-15T05:36:41;10.70;99.90
51739;DHT22;37815;52.692;6.226;2022-11-15T05:41:47;10.90;99.90
51739;DHT22;37815;52.692;6.226;2022-11-15T05:46:50;10.70;99.90
51739;DHT22;37815;52.692;6.226;2022-11-15T05:51:54;10.80;99.90
51739;DHT22;37815;52.692;6.226;2022-11-15T05:56:55;10.80;99.90
51739;DHT22;37815;52.692;6.226;2022-11-15T06:01:56;10.90;99.90
51739;DHT22;37815;52.692;6.226;2022-11-15T06:06:58;10.80;99.90
51739;DHT22;37815;52.692;6.226;2022-11-15T06:11:59;10.80;99.90
51739;DHT22;37815;52.692;6.226;2022-11-15T06:17:00;10.80;99.90
51739;DHT22;37815;52.692;6.226;2022-11-15T06:22:00;10.80;99.90
51739;DHT22;37815;52.692;6.226;2022-11-15T06:27:01;10.90;99.90
51739;DHT22;37815;52.692;6.226;2022-11-15T06:32:02;10.90;99.90
51739;DHT22;37815;52.692;6.226;2022-11-15T06:37:03;10.90;99.90
51739;DHT22;37815;52.692;6.226;2022-11-15T06:42:03;10.90;99.90
51739;DHT22;37815;52.692;6.226;2022-11-15T06:47:04;10.90;99.90
51739;DHT22;37815;52.692;6.226;2022-11-15T06:52:05;10.90;99.90
51739;DHT22;37815;52.692;6.226;2022-11-15T06:57:06;10.90;99.90
51739;DHT22;37815;52.692;6.226;2022-11-15T07:02:12;10.90;99.90
51739;DHT22;37815;52.692;6.226;2022-11-15T07:07:13;11.00;99.90
51739;DHT22;37815;52.692;6.226;2022-11-15T07:12:14;11.00;99.90
51739;DHT22;37815;52.692;6.226;2022-11-15T07:17:14;11.00;99.90
51739;DHT22;37815;52.692;6.226;2022-11-15T07:22:15;11.10;99.90
51739;DHT22;37815;52.692;6.226;2022-11-15T07:27:16;11.00;99.90
51739;DHT22;37815;52.692;6.226;2022-11-15T07:32:17;11.00;99.90
51739;DHT22;37815;52.692;6.226;2022-11-15T07:37:18;11.00;99.90
51739;DHT22;37815;52.692;6.226;2022-11-15T07:42:18;11.10;99.90
51739;DHT22;37815;52.692;6.226;2022-11-15T07:47:38;11.10;99.90
51739;DHT22;37815;52.692;6.226;2022-11-15T07:52:38;11.10;99.90
51739;DHT22;37815;52.692;6.226;2022-11-15T07:57:39;11.10;99.90
51739;DHT22;37815;52.692;6.226;2022-11-15T08:02:40;11.10;99.90
51739;DHT22;37815;52.692;6.226;2022-11-15T08:07:41;11.10;99.90
51739;DHT22;37815;52.692;6.226;2022-11-15T08:12:41;11.20;99.90
51739;DHT22;37815;52.692;6.226;2022-11-15T08:17:42;11.20;99.90
51739;DHT22;37815;52.692;6.226;2022-11-15T08:22:43;11.20;99.90
51739;DHT22;37815;52.692;6.226;2022-11-15T08:27:44;11.10;99.90
51739;DHT22;37815;52.692;6.226;2022-11-15T08:32:45;11.20;99.90
51739;DHT22;37815;52.692;6.226;2022-11-15T08:37:46;11.20;99.90
51739;DHT22;37815;52.692;6.226;2022-11-15T08:42:47;11.20;99.90
51739;DHT22;37815;52.692;6.226;2022-11-15T08:47:48;11.30;99.90
51739;DHT22;37815;52.692;6.226;2022-11-15T08:52:48;11.30;99.90
51739;DHT22;37815;52.692;6.226;2022-11-15T08:57:49;11.30;99.90
51739;DHT22;37815;52.692;6.226;2022-11-15T09:02:50;11.30;99.90
51739;DHT22;37815;52.692;6.226;2022-11-15T09:07:54;11.30;99.90
51739;DHT22;37815;52.692;6.226;2022-11-15T09:12:57;11.30;99.90
51739;DHT22;37815;52.692;6.226;2022-11-15T09:17:58;11.30;99.90
51739;DHT22;37815;52.692;6.226;2022-11-15T09:23:00;11.40;99.90
51739;DHT22;37815;52.692;6.226;2022-11-15T09:28:06;11.40;99.90
51739;DHT22;37815;52.692;6.226;2022-11-15T09:33:08;11.40;99.90
51739;DHT22;37815;52.692;6.226;2022-11-15T09:38:09;11.40;99.90
51739;DHT22;37815;52.692;6.226;2022-11-15T09:48:54;11.40;99.90
51739;DHT22;37815;52.692;6.226;2022-11-15T09:54:16;11.40;99.90
51739;DHT22;37815;52.692;6.226;2022-11-15T10:04:45;11.50;99.90
51739;DHT22;37815;52.692;6.226;2022-11-15T10:09:54;11.50;99.90
51739;DHT22;37815;52.692;6.226;2022-11-15T10:15:18;11.50;99.90
51739;DHT22;37815;52.692;6.226;2022-11-15T10:20:27;11.60;99.90
51739;DHT22;37815;52.692;6.226;2022-11-15T10:25:30;11.60;99.90
51739;DHT22;37815;52.692;6.226;2022-11-15T10:30:40;11.60;99.90
51739;DHT22;37815;52.692;6.226;2022-11-15T10:35:41;11.60;99.90
51739;DHT22;37815;52.692;6.226;2022-11-15T10:40:43;11.70;99.90
51739;DHT22;37815;52.692;6.226;2022-11-15T10:51:43;11.70;99.90
51739;DHT22;37815;52.692;6.226;2022-11-15T10:56:57;11.80;99.90
51739;DHT22;37815;52.692;6.226;2022-11-15T11:02:01;11.60;99.90
51739;DHT22;37815;52.692;6.226;2022-11-15T11:07:01;11.80;99.90
51739;DHT22;37815;52.692;6.226;2022-11-15T11:12:04;11.80;99.90
51739;DHT22;37815;52.692;6.226;2022-11-15T11:22:39;12.00;99.90
51739;DHT22;37815;52.692;6.226;2022-11-15T11:38:32;12.10;99.90
51739;DHT22;37815;52.692;6.226;2022-11-15T11:43:45;12.00;99.90
51739;DHT22;37815;52.692;6.226;2022-11-15T11:49:07;12.10;99.90
51739;DHT22;37815;52.692;6.226;2022-11-15T11:59:39;12.10;99.90
51739;DHT22;37815;52.692;6.226;2022-11-15T12:04:47;12.20;99.90
51739;DHT22;37815;52.692;6.226;2022-11-15T12:10:03;12.20;99.90
51739;DHT22;37815;52.692;6.226;2022-11-15T12:20:22;12.30;99.90
51739;DHT22;37815;52.692;6.226;2022-11-15T12:31:12;12.20;99.90
51739;DHT22;37815;52.692;6.226;2022-11-15T12:41:34;12.30;99.90
51739;DHT22;37815;52.692;6.226;2022-11-15T12:56:42;12.20;99.90
51739;DHT22;37815;52.692;6.226;2022-11-15T13:07:02;12.30;99.90
51739;DHT22;37815;52.692;6.226;2022-11-15T13:17:56;12.20;99.90
51739;DHT22;37815;52.692;6.226;2022-11-15T13:23:11;12.30;99.90
51739;DHT22;37815;52.692;6.226;2022-11-15T13:33:24;12.30;99.90
51739;DHT22;37815;52.692;6.226;2022-11-15T13:43:34;12.20;99.90
51739;DHT22;37815;52.692;6.226;2022-11-15T13:48:35;12.20;99.90
51739;DHT22;37815;52.692;6.226;2022-11-15T13:53:40;12.30;99.90
51739;DHT22;37815;52.692;6.226;2022-11-15T13:58:41;12.20;99.90
51739;DHT22;37815;52.692;6.226;2022-11-15T14:03:52;12.30;99.90
51739;DHT22;37815;52.692;6.226;2022-11-15T14:19:12;12.20;99.90
51739;DHT22;37815;52.692;6.226;2022-11-15T14:24:22;12.20;99.90
51739;DHT22;37815;52.692;6.226;2022-11-15T14:29:30;12.20;99.90
51739;DHT22;37815;52.692;6.226;2022-11-15T14:34:32;12.20;99.90
51739;DHT22;37815;52.692;6.226;2022-11-15T14:39:32;12.20;99.90
51739;DHT22;37815;52.692;6.226;2022-11-15T14:44:33;12.20;99.90
51739;DHT22;37815;52.692;6.226;2022-11-15T14:49:34;12.20;99.90
51739;DHT22;37815;52.692;6.226;2022-11-15T14:54:35;12.20;99.90
51739;DHT22;37815;52.692;6.226;2022-11-15T14:59:36;12.20;99.90
51739;DHT22;37815;52.692;6.226;2022-11-15T15:04:37;12.10;99.90
51739;DHT22;37815;52.692;6.226;2022-11-15T15:09:37;12.10;99.90
51739;DHT22;37815;52.692;6.226;2022-11-15T15:14:38;12.10;99.90
51739;DHT22;37815;52.692;6.226;2022-11-15T15:19:39;12.60;99.90
51739;DHT22;37815;52.692;6.226;2022-11-15T15:24:40;12.10;99.90
51739;DHT22;37815;52.692;6.226;2022-11-15T15:29:40;12.00;99.90
51739;DHT22;37815;52.692;6.226;2022-11-15T15:34:41;12.10;99.90
51739;DHT22;37815;52.692;6.226;2022-11-15T15:39:42;12.00;99.90
51739;DHT22;37815;52.692;6.226;2022-11-15T15:44:42;12.00;99.90
51739;DHT22;37815;52.692;6.226;2022-11-15T15:49:43;12.00;99.90
51739;DHT22;37815;52.692;6.226;2022-11-15T15:54:44;12.00;99.90
51739;DHT22;37815;52.692;6.226;2022-11-15T15:59:45;12.00;99.90
51739;DHT22;37815;52.692;6.226;2022-11-15T16:04:45;11.90;99.90
51739;DHT22;37815;52.692;6.226;2022-11-15T16:09:46;12.00;99.90
51739;DHT22;37815;52.692;6.226;2022-11-15T16:15:02;12.00;99.90
51739;DHT22;37815;52.692;6.226;2022-11-15T16:20:03;11.90;99.90
51739;DHT22;37815;52.692;6.226;2022-11-15T16:25:05;11.90;99.90
51739;DHT22;37815;52.692;6.226;2022-11-15T16:30:17;11.90;99.90
51739;DHT22;37815;52.692;6.226;2022-11-15T16:35:17;11.90;99.90
51739;DHT22;37815;52.692;6.226;2022-11-15T16:40:32;12.00;99.90
51739;DHT22;37815;52.692;6.226;2022-11-15T16:45:34;11.90;99.90
51739;DHT22;37815;52.692;6.226;2022-11-15T16:50:35;11.90;99.90
51739;DHT22;37815;52.692;6.226;2022-11-15T16:55:42;11.90;99.90
51739;DHT22;37815;52.692;6.226;2022-11-15T17:00:43;11.90;99.90
51739;DHT22;37815;52.692;6.226;2022-11-15T17:05:43;11.90;99.90
51739;DHT22;37815;52.692;6.226;2022-11-15T17:10:44;11.90;99.90
51739;DHT22;37815;52.692;6.226;2022-11-15T17:15:45;11.90;99.90
51739;DHT22;37815;52.692;6.226;2022-11-15T17:20:46;12.00;99.90
51739;DHT22;37815;52.692;6.226;2022-11-15T17:25:46;11.90;99.90
51739;DHT22;37815;52.692;6.226;2022-11-15T17:30:47;11.90;99.90
51739;DHT22;37815;52.692;6.226;2022-11-15T17:36:01;11.90;99.90
51739;DHT22;37815;52.692;6.226;2022-11-15T17:41:11;11.90;99.90
51739;DHT22;37815;52.692;6.226;2022-11-15T17:46:17;12.00;99.90
51739;DHT22;37815;52.692;6.226;2022-11-15T17:51:18;11.90;99.90
51739;DHT22;37815;52.692;6.226;2022-11-15T17:56:20;11.90;99.90
51739;DHT22;37815;52.692;6.226;2022-11-15T18:01:29;11.90;99.90
51739;DHT22;37815;52.692;6.226;2022-11-15T18:06:32;11.90;99.90
51739;DHT22;37815;52.692;6.226;2022-11-15T18:11:38;11.90;99.90
51739;DHT22;37815;52.692;6.226;2022-11-15T18:16:41;11.90;99.90
51739;DHT22;37815;52.692;6.226;2022-11-15T18:21:44;11.90;99.90
51739;DHT22;37815;52.692;6.226;2022-11-15T18:26:56;11.90;99.90
51739;DHT22;37815;52.692;6.226;2022-11-15T18:31:57;11.90;99.90
51739;DHT22;37815;52.692;6.226;2022-11-15T18:36:59;11.90;99.90
51739;DHT22;37815;52.692;6.226;2022-11-15T18:42:00;12.00;99.90
51739;DHT22;37815;52.692;6.226;2022-11-15T18:47:01;11.90;99.80
51739;DHT22;37815;52.692;6.226;2022-11-15T18:52:02;11.90;99.80
51739;DHT22;37815;52.692;6.226;2022-11-15T18:57:03;11.90;99.80
51739;DHT22;37815;52.692;6.226;2022-11-15T19:02:04;11.90;99.70
51739;DHT22;37815;52.692;6.226;2022-11-15T19:07:04;12.00;99.60
51739;DHT22;37815;52.692;6.226;2022-11-15T19:12:05;11.90;99.60
51739;DHT22;37815;52.692;6.226;2022-11-15T19:17:06;12.00;99.60
51739;DHT22;37815;52.692;6.226;2022-11-15T19:22:07;12.00;99.60
51739;DHT22;37815;52.692;6.226;2022-11-15T19:27:07;12.00;99.60
51739;DHT22;37815;52.692;6.226;2022-11-15T19:32:08;12.00;99.70
51739;DHT22;37815;52.692;6.226;2022-11-15T19:37:09;11.90;99.70
51739;DHT22;37815;52.692;6.226;2022-11-15T19:42:10;12.00;99.70
51739;DHT22;37815;52.692;6.226;2022-11-15T19:47:11;12.00;99.80
51739;DHT22;37815;52.692;6.226;2022-11-15T19:52:11;11.90;99.80
51739;DHT22;37815;52.692;6.226;2022-11-15T19:57:12;11.90;99.80
51739;DHT22;37815;52.692;6.226;2022-11-15T20:02:13;11.90;99.80
51739;DHT22;37815;52.692;6.226;2022-11-15T20:07:13;11.90;99.80
51739;DHT22;37815;52.692;6.226;2022-11-15T20:12:14;11.90;99.90
51739;DHT22;37815;52.692;6.226;2022-11-15T20:17:15;11.90;99.90
51739;DHT22;37815;52.692;6.226;2022-11-15T20:22:16;11.90;99.90
51739;DHT22;37815;52.692;6.226;2022-11-15T20:27:16;11.90;99.90
51739;DHT22;37815;52.692;6.226;2022-11-15T20:32:18;11.90;99.90
51739;DHT22;37815;52.692;6.226;2022-11-15T20:37:18;11.90;99.90
51739;DHT22;37815;52.692;6.226;2022-11-15T20:42:20;11.90;99.90
51739;DHT22;37815;52.692;6.226;2022-11-15T20:47:20;11.90;99.90
51739;DHT22;37815;52.692;6.226;2022-11-15T20:52:21;11.90;99.90
51739;DHT22;37815;52.692;6.226;2022-11-15T20:57:22;11.90;99.90
51739;DHT22;37815;52.692;6.226;2022-11-15T21:02:22;11.90;99.90
51739;DHT22;37815;52.692;6.226;2022-11-15T21:07:23;11.90;99.90
51739;DHT22;37815;52.692;6.226;2022-11-15T21:12:24;11.90;99.90
51739;DHT22;37815;52.692;6.226;2022-11-15T21:17:25;11.90;99.90
51739;DHT22;37815;52.692;6.226;2022-11-15T21:22:26;11.90;99.90
51739;DHT22;37815;52.692;6.226;2022-11-15T21:27:27;11.90;99.90
51739;DHT22;37815;52.692;6.226;2022-11-15T21:32:27;11.90;99.90
51739;DHT22;37815;52.692;6.226;2022-11-15T21:37:29;11.90;99.90
51739;DHT22;37815;52.692;6.226;2022-11-15T21:42:29;11.90;99.90
51739;DHT22;37815;52.692;6.226;2022-11-15T21:47:30;11.90;99.90
51739;DHT22;37815;52.692;6.226;2022-11-15T21:52:31;11.90;99.90
51739;DHT22;37815;52.692;6.226;2022-11-15T21:57:32;11.90;99.90
51739;DHT22;37815;52.692;6.226;2022-11-15T22:02:32;11.90;99.90
51739;DHT22;37815;52.692;6.226;2022-11-15T22:07:33;11.90;99.90
51739;DHT22;37815;52.692;6.226;2022-11-15T22:12:34;11.90;99.90
51739;DHT22;37815;52.692;6.226;2022-11-15T22:17:36;11.80;99.90
51739;DHT22;37815;52.692;6.226;2022-11-15T22:22:56;11.90;99.90
51739;DHT22;37815;52.692;6.226;2022-11-15T22:27:57;11.90;99.90
51739;DHT22;37815;52.692;6.226;2022-11-15T22:32:58;11.90;99.90
51739;DHT22;37815;52.692;6.226;2022-11-15T22:37:59;11.90;99.90
51739;DHT22;37815;52.692;6.226;2022-11-15T22:42:59;11.90;99.90
51739;DHT22;37815;52.692;6.226;2022-11-15T22:48:00;11.90;99.90
51739;DHT22;37815;52.692;6.226;2022-11-15T22:53:01;11.90;99.90
51739;DHT22;37815;52.692;6.226;2022-11-15T22:58:01;11.90;99.90
51739;DHT22;37815;52.692;6.226;2022-11-15T23:03:02;11.90;99.90
51739;DHT22;37815;52.692;6.226;2022-11-15T23:08:03;11.90;99.90
51739;DHT22;37815;52.692;6.226;2022-11-15T23:13:05;11.90;99.90
51739;DHT22;37815;52.692;6.226;2022-11-15T23:18:15;11.90;99.90
51739;DHT22;37815;52.692;6.226;2022-11-15T23:23:16;11.90;99.90
51739;DHT22;37815;52.692;6.226;2022-11-15T23:28:17;11.90;99.90
51739;DHT22;37815;52.692;6.226;2022-11-15T23:33:18;11.90;99.90
51739;DHT22;37815;52.692;6.226;2022-11-15T23:38:37;11.90;99.90
51739;DHT22;37815;52.692;6.226;2022-11-15T23:43:43;11.90;99.90
51739;DHT22;37815;52.692;6.226;2022-11-15T23:48:44;11.90;99.90
51739;DHT22;37815;52.692;6.226;2022-11-15T23:53:45;11.90;99.90
51739;DHT22;37815;52.692;6.226;2022-11-15T23:58:46;11.90;99.90
